sensor_id;sensor_type;location;lat;lon;timestamp;P1;durP1;ratioP1;P2;durP2;ratioP2
50880;SDS011;36858;47.832;-3.800;2022-10-22T04:48:54;13.83;;;3.20;;
50880;SDS011;36858;47.832;-3.800;2022-10-22T04:51:22;11.20;;;2.97;;
50880;SDS011;36858;47.832;-3.800;2022-10-22T04:53:50;14.47;;;2.47;;
50880;SDS011;36858;47.832;-3.800;2022-10-22T04:58:53;12.37;;;3.00;;
50880;SDS011;36858;47.832;-3.800;2022-10-22T05:01:27;14.37;;;2.80;;
50880;SDS011;36858;47.832;-3.800;2022-10-22T05:03:56;12.70;;;2.43;;
50880;SDS011;36858;47.832;-3.800;2022-10-22T05:06:24;14.90;;;3.07;;
50880;SDS011;36858;47.832;-3.800;2022-10-22T05:08:56;17.37;;;3.43;;
50880;SDS011;36858;47.832;-3.800;2022-10-22T05:11:25;14.27;;;2.90;;
50880;SDS011;36858;47.832;-3.800;2022-10-22T05:13:54;15.30;;;2.90;;
50880;SDS011;36858;47.832;-3.800;2022-10-22T05:16:22;15.33;;;3.33;;
50880;SDS011;36858;47.832;-3.800;2022-10-22T05:18:49;11.23;;;2.67;;
50880;SDS011;36858;47.832;-3.800;2022-10-22T05:21:17;12.10;;;3.77;;
50880;SDS011;36858;47.832;-3.800;2022-10-22T05:23:45;16.87;;;3.03;;
50880;SDS011;36858;47.832;-3.800;2022-10-22T05:26:14;13.93;;;3.17;;
50880;SDS011;36858;47.832;-3.800;2022-10-22T05:28:42;14.67;;;2.93;;
50880;SDS011;36858;47.832;-3.800;2022-10-22T05:31:10;18.13;;;2.93;;
50880;SDS011;36858;47.832;-3.800;2022-10-22T05:33:38;15.70;;;3.20;;
50880;SDS011;36858;47.832;-3.800;2022-10-22T05:36:06;12.80;;;3.47;;
50880;SDS011;36858;47.832;-3.800;2022-10-22T05:38:34;13.93;;;3.20;;
50880;SDS011;36858;47.832;-3.800;2022-10-22T05:41:05;17.77;;;3.07;;
50880;SDS011;36858;47.832;-3.800;2022-10-22T05:43:34;12.97;;;2.97;;
50880;SDS011;36858;47.832;-3.800;2022-10-22T05:46:04;19.27;;;4.37;;
50880;SDS011;36858;47.832;-3.800;2022-10-22T05:48:35;20.17;;;3.67;;
50880;SDS011;36858;47.832;-3.800;2022-10-22T05:51:03;11.17;;;2.63;;
50880;SDS011;36858;47.832;-3.800;2022-10-22T05:53:34;20.13;;;3.63;;
50880;SDS011;36858;47.832;-3.800;2022-10-22T05:56:03;13.23;;;3.03;;
50880;SDS011;36858;47.832;-3.800;2022-10-22T05:58:31;15.33;;;3.27;;
50880;SDS011;36858;47.832;-3.800;2022-10-22T06:01:06;15.00;;;2.87;;
50880;SDS011;36858;47.832;-3.800;2022-10-22T06:03:34;12.90;;;3.27;;
50880;SDS011;36858;47.832;-3.800;2022-10-22T06:06:02;19.53;;;3.73;;
50880;SDS011;36858;47.832;-3.800;2022-10-22T06:08:32;16.20;;;3.70;;
50880;SDS011;36858;47.832;-3.800;2022-10-22T06:10:59;16.30;;;3.13;;
50880;SDS011;36858;47.832;-3.800;2022-10-22T06:13:26;9.37;;;2.73;;
50880;SDS011;36858;47.832;-3.800;2022-10-22T06:15:53;11.10;;;3.17;;
50880;SDS011;36858;47.832;-3.800;2022-10-22T06:18:20;19.70;;;3.60;;
50880;SDS011;36858;47.832;-3.800;2022-10-22T06:20:50;11.63;;;3.07;;
50880;SDS011;36858;47.832;-3.800;2022-10-22T06:23:17;14.23;;;3.33;;
50880;SDS011;36858;47.832;-3.800;2022-10-22T06:25:54;17.97;;;5.53;;
50880;SDS011;36858;47.832;-3.800;2022-10-22T06:28:21;11.47;;;3.43;;
50880;SDS011;36858;47.832;-3.800;2022-10-22T06:30:49;9.43;;;2.90;;
50880;SDS011;36858;47.832;-3.800;2022-10-22T06:33:16;16.03;;;3.60;;
50880;SDS011;36858;47.832;-3.800;2022-10-22T06:35:43;15.70;;;3.00;;
50880;SDS011;36858;47.832;-3.800;2022-10-22T06:38:10;19.53;;;3.70;;
50880;SDS011;36858;47.832;-3.800;2022-10-22T06:40:37;18.30;;;3.67;;
50880;SDS011;36858;47.832;-3.800;2022-10-22T06:43:04;17.43;;;3.53;;
50880;SDS011;36858;47.832;-3.800;2022-10-22T06:45:31;12.93;;;4.50;;
50880;SDS011;36858;47.832;-3.800;2022-10-22T06:47:58;18.53;;;3.17;;
50880;SDS011;36858;47.832;-3.800;2022-10-22T06:50:25;18.33;;;3.67;;
50880;SDS011;36858;47.832;-3.800;2022-10-22T06:52:52;19.10;;;3.37;;
50880;SDS011;36858;47.832;-3.800;2022-10-22T06:55:19;9.77;;;2.60;;
50880;SDS011;36858;47.832;-3.800;2022-10-22T06:57:45;15.43;;;3.33;;
50880;SDS011;36858;47.832;-3.800;2022-10-22T07:00:13;17.17;;;3.73;;
50880;SDS011;36858;47.832;-3.800;2022-10-22T07:02:40;15.70;;;3.97;;
50880;SDS011;36858;47.832;-3.800;2022-10-22T07:05:07;25.37;;;4.27;;
50880;SDS011;36858;47.832;-3.800;2022-10-22T07:07:34;15.10;;;3.20;;
50880;SDS011;36858;47.832;-3.800;2022-10-22T07:10:02;13.87;;;3.87;;
50880;SDS011;36858;47.832;-3.800;2022-10-22T07:12:29;20.70;;;3.63;;
50880;SDS011;36858;47.832;-3.800;2022-10-22T07:14:56;9.80;;;2.77;;
50880;SDS011;36858;47.832;-3.800;2022-10-22T07:17:23;10.33;;;3.37;;
50880;SDS011;36858;47.832;-3.800;2022-10-22T07:19:50;17.70;;;4.10;;
50880;SDS011;36858;47.832;-3.800;2022-10-22T07:22:17;15.93;;;3.70;;
50880;SDS011;36858;47.832;-3.800;2022-10-22T07:24:44;15.20;;;3.60;;
50880;SDS011;36858;47.832;-3.800;2022-10-22T07:27:11;16.93;;;3.17;;
50880;SDS011;36858;47.832;-3.800;2022-10-22T07:29:37;15.30;;;3.50;;
50880;SDS011;36858;47.832;-3.800;2022-10-22T07:32:04;16.33;;;3.70;;
50880;SDS011;36858;47.832;-3.800;2022-10-22T07:34:31;17.93;;;3.00;;
50880;SDS011;36858;47.832;-3.800;2022-10-22T07:36:58;12.10;;;3.10;;
50880;SDS011;36858;47.832;-3.800;2022-10-22T07:39:25;14.50;;;3.30;;
50880;SDS011;36858;47.832;-3.800;2022-10-22T07:41:53;20.73;;;3.93;;
50880;SDS011;36858;47.832;-3.800;2022-10-22T07:44:21;12.87;;;3.30;;
50880;SDS011;36858;47.832;-3.800;2022-10-22T07:46:47;10.93;;;2.53;;
50880;SDS011;36858;47.832;-3.800;2022-10-22T07:49:14;13.17;;;2.83;;
50880;SDS011;36858;47.832;-3.800;2022-10-22T07:51:41;15.07;;;2.80;;
50880;SDS011;36858;47.832;-3.800;2022-10-22T07:54:08;13.80;;;2.83;;
50880;SDS011;36858;47.832;-3.800;2022-10-22T07:56:35;14.13;;;3.23;;
50880;SDS011;36858;47.832;-3.800;2022-10-22T07:59:04;13.00;;;2.73;;
50880;SDS011;36858;47.832;-3.800;2022-10-22T08:01:31;14.47;;;2.47;;
50880;SDS011;36858;47.832;-3.800;2022-10-22T08:03:58;9.70;;;2.50;;
50880;SDS011;36858;47.832;-3.800;2022-10-22T08:06:25;14.53;;;2.93;;
50880;SDS011;36858;47.832;-3.800;2022-10-22T08:08:52;13.30;;;3.97;;
50880;SDS011;36858;47.832;-3.800;2022-10-22T08:11:19;13.17;;;2.97;;
50880;SDS011;36858;47.832;-3.800;2022-10-22T08:13:46;10.37;;;2.33;;
50880;SDS011;36858;47.832;-3.800;2022-10-22T08:16:13;15.63;;;3.00;;
50880;SDS011;36858;47.832;-3.800;2022-10-22T08:18:40;14.43;;;2.53;;
50880;SDS011;36858;47.832;-3.800;2022-10-22T08:21:07;13.07;;;3.10;;
50880;SDS011;36858;47.832;-3.800;2022-10-22T08:23:34;9.33;;;2.13;;
50880;SDS011;36858;47.832;-3.800;2022-10-22T08:26:01;11.93;;;2.30;;
50880;SDS011;36858;47.832;-3.800;2022-10-22T08:28:28;10.73;;;1.90;;
50880;SDS011;36858;47.832;-3.800;2022-10-22T08:30:56;13.30;;;2.63;;
50880;SDS011;36858;47.832;-3.800;2022-10-22T08:33:23;12.30;;;2.43;;
50880;SDS011;36858;47.832;-3.800;2022-10-22T08:35:50;10.13;;;1.90;;
50880;SDS011;36858;47.832;-3.800;2022-10-22T08:38:18;9.30;;;2.10;;
50880;SDS011;36858;47.832;-3.800;2022-10-22T08:40:50;12.57;;;2.70;;
50880;SDS011;36858;47.832;-3.800;2022-10-22T08:43:26;12.10;;;2.33;;
50880;SDS011;36858;47.832;-3.800;2022-10-22T08:48:52;12.20;;;2.23;;
50880;SDS011;36858;47.832;-3.800;2022-10-22T08:51:23;11.73;;;2.30;;
50880;SDS011;36858;47.832;-3.800;2022-10-22T08:59:35;17.80;;;3.20;;
50880;SDS011;36858;47.832;-3.800;2022-10-22T09:05:01;23.30;;;5.53;;
50880;SDS011;36858;47.832;-3.800;2022-10-22T09:07:42;19.17;;;3.60;;
50880;SDS011;36858;47.832;-3.800;2022-10-22T09:10:14;13.37;;;2.97;;
50880;SDS011;36858;47.832;-3.800;2022-10-22T09:12:46;10.97;;;3.00;;
50880;SDS011;36858;47.832;-3.800;2022-10-22T09:15:13;11.77;;;1.80;;
50880;SDS011;36858;47.832;-3.800;2022-10-22T09:17:48;10.40;;;2.27;;
50880;SDS011;36858;47.832;-3.800;2022-10-22T09:20:38;13.27;;;2.60;;
50880;SDS011;36858;47.832;-3.800;2022-10-22T09:23:31;9.27;;;2.90;;
50880;SDS011;36858;47.832;-3.800;2022-10-22T09:25:59;13.40;;;2.53;;
50880;SDS011;36858;47.832;-3.800;2022-10-22T09:28:26;8.40;;;2.20;;
50880;SDS011;36858;47.832;-3.800;2022-10-22T09:30:53;7.47;;;1.90;;
50880;SDS011;36858;47.832;-3.800;2022-10-22T09:33:24;6.17;;;1.50;;
50880;SDS011;36858;47.832;-3.800;2022-10-22T09:35:54;10.37;;;2.43;;
50880;SDS011;36858;47.832;-3.800;2022-10-22T09:38:27;5.93;;;1.90;;
50880;SDS011;36858;47.832;-3.800;2022-10-22T09:40:56;11.40;;;2.50;;
50880;SDS011;36858;47.832;-3.800;2022-10-22T09:43:24;5.83;;;1.73;;
50880;SDS011;36858;47.832;-3.800;2022-10-22T09:45:55;15.37;;;2.40;;
50880;SDS011;36858;47.832;-3.800;2022-10-22T09:48:33;17.10;;;2.53;;
50880;SDS011;36858;47.832;-3.800;2022-10-22T09:53:56;9.67;;;1.67;;
50880;SDS011;36858;47.832;-3.800;2022-10-22T09:56:27;8.10;;;1.33;;
50880;SDS011;36858;47.832;-3.800;2022-10-22T09:59:01;7.83;;;2.03;;
50880;SDS011;36858;47.832;-3.800;2022-10-22T10:01:32;5.77;;;1.40;;
50880;SDS011;36858;47.832;-3.800;2022-10-22T10:04:03;9.97;;;1.80;;
50880;SDS011;36858;47.832;-3.800;2022-10-22T10:06:35;14.50;;;2.30;;
50880;SDS011;36858;47.832;-3.800;2022-10-22T10:09:08;9.83;;;1.87;;
50880;SDS011;36858;47.832;-3.800;2022-10-22T10:14:44;5.17;;;1.60;;
50880;SDS011;36858;47.832;-3.800;2022-10-22T10:17:53;9.03;;;2.23;;
50880;SDS011;36858;47.832;-3.800;2022-10-22T10:20:35;8.83;;;2.10;;
50880;SDS011;36858;47.832;-3.800;2022-10-22T10:23:18;9.70;;;2.00;;
50880;SDS011;36858;47.832;-3.800;2022-10-22T10:26:16;11.83;;;2.27;;
50880;SDS011;36858;47.832;-3.800;2022-10-22T10:29:01;10.77;;;2.17;;
50880;SDS011;36858;47.832;-3.800;2022-10-22T10:34:41;6.03;;;1.70;;
50880;SDS011;36858;47.832;-3.800;2022-10-22T10:40:00;15.77;;;2.10;;
50880;SDS011;36858;47.832;-3.800;2022-10-22T10:48:42;12.23;;;2.20;;
50880;SDS011;36858;47.832;-3.800;2022-10-22T10:51:42;7.07;;;1.47;;
50880;SDS011;36858;47.832;-3.800;2022-10-22T10:54:23;14.30;;;2.17;;
50880;SDS011;36858;47.832;-3.800;2022-10-22T10:57:12;13.73;;;2.20;;
50880;SDS011;36858;47.832;-3.800;2022-10-22T11:05:24;19.47;;;3.30;;
50880;SDS011;36858;47.832;-3.800;2022-10-22T11:10:44;14.20;;;2.60;;
50880;SDS011;36858;47.832;-3.800;2022-10-22T11:13:27;9.97;;;2.40;;
50880;SDS011;36858;47.832;-3.800;2022-10-22T11:18:43;8.80;;;1.47;;
50880;SDS011;36858;47.832;-3.800;2022-10-22T11:21:35;15.50;;;2.60;;
50880;SDS011;36858;47.832;-3.800;2022-10-22T11:27:24;10.13;;;2.20;;
50880;SDS011;36858;47.832;-3.800;2022-10-22T11:29:29;6.93;;;1.83;;
50880;SDS011;36858;47.832;-3.800;2022-10-22T11:32:00;15.80;;;2.60;;
50880;SDS011;36858;47.832;-3.800;2022-10-22T11:35:29;12.60;;;2.00;;
50880;SDS011;36858;47.832;-3.800;2022-10-22T11:37:25;9.50;;;2.10;;
50880;SDS011;36858;47.832;-3.800;2022-10-22T11:40:01;10.47;;;2.63;;
50880;SDS011;36858;47.832;-3.800;2022-10-22T11:42:33;6.37;;;1.87;;
50880;SDS011;36858;47.832;-3.800;2022-10-22T11:58:29;9.60;;;2.00;;
50880;SDS011;36858;47.832;-3.800;2022-10-22T12:08:59;5.27;;;1.60;;
50880;SDS011;36858;47.832;-3.800;2022-10-22T12:11:35;10.40;;;2.00;;
50880;SDS011;36858;47.832;-3.800;2022-10-22T12:16:46;14.90;;;2.97;;
50880;SDS011;36858;47.832;-3.800;2022-10-22T12:21:56;13.17;;;2.03;;
50880;SDS011;36858;47.832;-3.800;2022-10-22T12:24:28;8.30;;;2.63;;
50880;SDS011;36858;47.832;-3.800;2022-10-22T12:26:57;7.93;;;2.53;;
50880;SDS011;36858;47.832;-3.800;2022-10-22T12:29:24;9.13;;;2.53;;
50880;SDS011;36858;47.832;-3.800;2022-10-22T12:31:52;13.77;;;2.97;;
50880;SDS011;36858;47.832;-3.800;2022-10-22T12:52:39;11.37;;;2.83;;
50880;SDS011;36858;47.832;-3.800;2022-10-22T12:55:06;9.10;;;1.83;;
50880;SDS011;36858;47.832;-3.800;2022-10-22T12:57:35;9.67;;;1.60;;
50880;SDS011;36858;47.832;-3.800;2022-10-22T13:00:03;8.20;;;2.13;;
50880;SDS011;36858;47.832;-3.800;2022-10-22T13:02:30;7.20;;;1.73;;
50880;SDS011;36858;47.832;-3.800;2022-10-22T13:05:14;4.23;;;1.60;;
50880;SDS011;36858;47.832;-3.800;2022-10-22T13:07:53;4.97;;;1.40;;
50880;SDS011;36858;47.832;-3.800;2022-10-22T13:10:32;7.47;;;1.40;;
50880;SDS011;36858;47.832;-3.800;2022-10-22T13:13:01;8.87;;;1.80;;
50880;SDS011;36858;47.832;-3.800;2022-10-22T13:18:03;6.33;;;1.47;;
50880;SDS011;36858;47.832;-3.800;2022-10-22T13:20:52;6.83;;;1.30;;
50880;SDS011;36858;47.832;-3.800;2022-10-22T13:23:25;5.67;;;1.60;;
50880;SDS011;36858;47.832;-3.800;2022-10-22T13:26:03;8.97;;;2.20;;
50880;SDS011;36858;47.832;-3.800;2022-10-22T13:28:42;8.83;;;2.03;;
50880;SDS011;36858;47.832;-3.800;2022-10-22T13:31:16;7.40;;;2.17;;
50880;SDS011;36858;47.832;-3.800;2022-10-22T13:33:50;7.87;;;2.00;;
50880;SDS011;36858;47.832;-3.800;2022-10-22T13:36:22;11.13;;;1.63;;
50880;SDS011;36858;47.832;-3.800;2022-10-22T13:38:49;10.50;;;1.77;;
50880;SDS011;36858;47.832;-3.800;2022-10-22T13:43:50;5.17;;;1.40;;
50880;SDS011;36858;47.832;-3.800;2022-10-22T13:46:17;8.60;;;1.73;;
50880;SDS011;36858;47.832;-3.800;2022-10-22T13:48:45;8.53;;;1.73;;
50880;SDS011;36858;47.832;-3.800;2022-10-22T13:51:17;5.13;;;1.83;;
50880;SDS011;36858;47.832;-3.800;2022-10-22T13:53:48;9.57;;;1.70;;
50880;SDS011;36858;47.832;-3.800;2022-10-22T13:56:16;7.20;;;1.40;;
50880;SDS011;36858;47.832;-3.800;2022-10-22T13:58:44;9.83;;;1.57;;
50880;SDS011;36858;47.832;-3.800;2022-10-22T14:01:22;7.60;;;1.80;;
50880;SDS011;36858;47.832;-3.800;2022-10-22T14:03:51;7.27;;;1.73;;
50880;SDS011;36858;47.832;-3.800;2022-10-22T14:06:20;5.20;;;1.33;;
50880;SDS011;36858;47.832;-3.800;2022-10-22T14:08:48;10.93;;;2.73;;
50880;SDS011;36858;47.832;-3.800;2022-10-22T14:11:19;7.30;;;1.43;;
50880;SDS011;36858;47.832;-3.800;2022-10-22T14:13:46;8.70;;;2.10;;
50880;SDS011;36858;47.832;-3.800;2022-10-22T14:16:15;8.00;;;1.33;;
50880;SDS011;36858;47.832;-3.800;2022-10-22T14:18:45;8.00;;;1.90;;
50880;SDS011;36858;47.832;-3.800;2022-10-22T14:21:13;9.97;;;1.67;;
50880;SDS011;36858;47.832;-3.800;2022-10-22T14:23:41;5.83;;;1.63;;
50880;SDS011;36858;47.832;-3.800;2022-10-22T14:26:22;6.30;;;1.30;;
50880;SDS011;36858;47.832;-3.800;2022-10-22T14:28:49;4.83;;;1.60;;
50880;SDS011;36858;47.832;-3.800;2022-10-22T14:31:40;6.73;;;1.80;;
50880;SDS011;36858;47.832;-3.800;2022-10-22T14:34:09;12.20;;;1.93;;
50880;SDS011;36858;47.832;-3.800;2022-10-22T14:36:37;10.53;;;2.23;;
50880;SDS011;36858;47.832;-3.800;2022-10-22T14:39:04;8.10;;;1.73;;
50880;SDS011;36858;47.832;-3.800;2022-10-22T14:41:31;13.30;;;1.97;;
50880;SDS011;36858;47.832;-3.800;2022-10-22T14:43:58;7.33;;;1.90;;
50880;SDS011;36858;47.832;-3.800;2022-10-22T14:46:25;6.10;;;1.37;;
50880;SDS011;36858;47.832;-3.800;2022-10-22T14:48:52;8.43;;;1.50;;
50880;SDS011;36858;47.832;-3.800;2022-10-22T14:51:19;4.70;;;1.30;;
50880;SDS011;36858;47.832;-3.800;2022-10-22T14:53:46;7.07;;;2.00;;
50880;SDS011;36858;47.832;-3.800;2022-10-22T14:56:15;8.20;;;2.20;;
50880;SDS011;36858;47.832;-3.800;2022-10-22T14:58:43;10.30;;;2.50;;
50880;SDS011;36858;47.832;-3.800;2022-10-22T15:01:11;8.67;;;2.40;;
50880;SDS011;36858;47.832;-3.800;2022-10-22T15:03:38;6.90;;;1.80;;
50880;SDS011;36858;47.832;-3.800;2022-10-22T15:06:05;8.47;;;2.20;;
50880;SDS011;36858;47.832;-3.800;2022-10-22T15:08:33;10.13;;;2.40;;
50880;SDS011;36858;47.832;-3.800;2022-10-22T15:11:01;8.00;;;3.00;;
50880;SDS011;36858;47.832;-3.800;2022-10-22T15:13:29;11.70;;;2.20;;
50880;SDS011;36858;47.832;-3.800;2022-10-22T15:15:57;11.03;;;2.60;;
50880;SDS011;36858;47.832;-3.800;2022-10-22T15:18:25;15.23;;;4.00;;
50880;SDS011;36858;47.832;-3.800;2022-10-22T15:20:53;7.57;;;2.47;;
50880;SDS011;36858;47.832;-3.800;2022-10-22T15:23:24;14.07;;;2.63;;
50880;SDS011;36858;47.832;-3.800;2022-10-22T15:25:52;8.20;;;2.20;;
50880;SDS011;36858;47.832;-3.800;2022-10-22T15:28:19;9.67;;;2.40;;
50880;SDS011;36858;47.832;-3.800;2022-10-22T15:30:56;14.43;;;2.70;;
50880;SDS011;36858;47.832;-3.800;2022-10-22T15:33:25;9.23;;;2.63;;
50880;SDS011;36858;47.832;-3.800;2022-10-22T15:35:53;11.63;;;2.43;;
50880;SDS011;36858;47.832;-3.800;2022-10-22T15:38:21;11.20;;;2.53;;
50880;SDS011;36858;47.832;-3.800;2022-10-22T15:40:58;10.33;;;2.70;;
50880;SDS011;36858;47.832;-3.800;2022-10-22T15:43:30;14.37;;;2.40;;
50880;SDS011;36858;47.832;-3.800;2022-10-22T15:49:00;8.60;;;2.30;;
50880;SDS011;36858;47.832;-3.800;2022-10-22T15:51:27;12.80;;;2.63;;
50880;SDS011;36858;47.832;-3.800;2022-10-22T15:53:56;10.57;;;2.13;;
50880;SDS011;36858;47.832;-3.800;2022-10-22T15:56:24;10.33;;;2.80;;
50880;SDS011;36858;47.832;-3.800;2022-10-22T15:58:56;13.13;;;3.30;;
50880;SDS011;36858;47.832;-3.800;2022-10-22T16:01:25;11.70;;;2.80;;
50880;SDS011;36858;47.832;-3.800;2022-10-22T16:03:52;10.13;;;2.97;;
50880;SDS011;36858;47.832;-3.800;2022-10-22T16:06:29;19.70;;;3.53;;
50880;SDS011;36858;47.832;-3.800;2022-10-22T16:08:58;13.00;;;2.43;;
50880;SDS011;36858;47.832;-3.800;2022-10-22T16:11:26;10.70;;;2.57;;
50880;SDS011;36858;47.832;-3.800;2022-10-22T16:13:55;13.87;;;2.43;;
50880;SDS011;36858;47.832;-3.800;2022-10-22T16:16:24;19.03;;;3.10;;
50880;SDS011;36858;47.832;-3.800;2022-10-22T16:18:53;14.03;;;3.17;;
50880;SDS011;36858;47.832;-3.800;2022-10-22T16:21:20;12.00;;;2.80;;
50880;SDS011;36858;47.832;-3.800;2022-10-22T16:23:48;10.53;;;2.60;;
50880;SDS011;36858;47.832;-3.800;2022-10-22T16:26:16;12.07;;;2.23;;
50880;SDS011;36858;47.832;-3.800;2022-10-22T16:28:43;13.53;;;3.00;;
50880;SDS011;36858;47.832;-3.800;2022-10-22T16:31:12;11.53;;;2.97;;
50880;SDS011;36858;47.832;-3.800;2022-10-22T16:33:41;17.27;;;3.43;;
50880;SDS011;36858;47.832;-3.800;2022-10-22T16:36:16;8.63;;;3.43;;
50880;SDS011;36858;47.832;-3.800;2022-10-22T16:38:44;13.70;;;2.77;;
50880;SDS011;36858;47.832;-3.800;2022-10-22T16:41:13;14.43;;;3.00;;
50880;SDS011;36858;47.832;-3.800;2022-10-22T16:43:48;8.10;;;2.60;;
50880;SDS011;36858;47.832;-3.800;2022-10-22T16:46:19;12.37;;;2.57;;
50880;SDS011;36858;47.832;-3.800;2022-10-22T16:48:50;9.77;;;2.03;;
50880;SDS011;36858;47.832;-3.800;2022-10-22T16:51:19;13.23;;;2.30;;
50880;SDS011;36858;47.832;-3.800;2022-10-22T16:53:47;14.20;;;3.27;;
50880;SDS011;36858;47.832;-3.800;2022-10-22T16:56:17;15.57;;;3.47;;
50880;SDS011;36858;47.832;-3.800;2022-10-22T16:58:45;8.93;;;2.97;;
50880;SDS011;36858;47.832;-3.800;2022-10-22T17:01:13;8.93;;;2.77;;
50880;SDS011;36858;47.832;-3.800;2022-10-22T17:03:43;9.30;;;3.00;;
50880;SDS011;36858;47.832;-3.800;2022-10-22T17:06:10;12.17;;;3.03;;
50880;SDS011;36858;47.832;-3.800;2022-10-22T17:08:38;11.47;;;3.03;;
50880;SDS011;36858;47.832;-3.800;2022-10-22T17:11:07;8.97;;;2.77;;
50880;SDS011;36858;47.832;-3.800;2022-10-22T17:13:41;9.00;;;2.20;;
50880;SDS011;36858;47.832;-3.800;2022-10-22T17:16:11;8.43;;;2.97;;
50880;SDS011;36858;47.832;-3.800;2022-10-22T17:18:40;7.63;;;2.83;;
50880;SDS011;36858;47.832;-3.800;2022-10-22T17:21:08;9.43;;;3.07;;
50880;SDS011;36858;47.832;-3.800;2022-10-22T17:23:36;7.80;;;2.67;;
50880;SDS011;36858;47.832;-3.800;2022-10-22T17:26:05;8.63;;;2.90;;
50880;SDS011;36858;47.832;-3.800;2022-10-22T17:28:34;11.60;;;2.57;;
50880;SDS011;36858;47.832;-3.800;2022-10-22T17:31:05;13.47;;;2.93;;
50880;SDS011;36858;47.832;-3.800;2022-10-22T17:33:35;12.47;;;2.77;;
50880;SDS011;36858;47.832;-3.800;2022-10-22T17:36:06;10.83;;;3.20;;
50880;SDS011;36858;47.832;-3.800;2022-10-22T17:38:36;7.80;;;2.90;;
50880;SDS011;36858;47.832;-3.800;2022-10-22T17:41:05;18.00;;;3.97;;
50880;SDS011;36858;47.832;-3.800;2022-10-22T17:43:35;6.97;;;2.50;;
50880;SDS011;36858;47.832;-3.800;2022-10-22T17:46:06;11.80;;;3.10;;
50880;SDS011;36858;47.832;-3.800;2022-10-22T17:48:36;8.10;;;2.87;;
50880;SDS011;36858;47.832;-3.800;2022-10-22T17:51:06;8.73;;;2.77;;
50880;SDS011;36858;47.832;-3.800;2022-10-22T17:53:33;10.57;;;3.00;;
50880;SDS011;36858;47.832;-3.800;2022-10-22T17:56:01;7.60;;;2.70;;
50880;SDS011;36858;47.832;-3.800;2022-10-22T17:58:32;7.40;;;2.23;;
50880;SDS011;36858;47.832;-3.800;2022-10-22T18:00:59;8.13;;;2.50;;
50880;SDS011;36858;47.832;-3.800;2022-10-22T18:03:26;8.60;;;2.83;;
50880;SDS011;36858;47.832;-3.800;2022-10-22T18:05:53;11.03;;;2.63;;
50880;SDS011;36858;47.832;-3.800;2022-10-22T18:08:20;11.23;;;2.47;;
50880;SDS011;36858;47.832;-3.800;2022-10-22T18:10:50;9.10;;;2.43;;
50880;SDS011;36858;47.832;-3.800;2022-10-22T18:13:17;13.47;;;3.00;;
50880;SDS011;36858;47.832;-3.800;2022-10-22T18:15:44;8.27;;;2.40;;
50880;SDS011;36858;47.832;-3.800;2022-10-22T18:18:11;5.90;;;2.40;;
50880;SDS011;36858;47.832;-3.800;2022-10-22T18:20:38;10.30;;;2.80;;
50880;SDS011;36858;47.832;-3.800;2022-10-22T18:23:05;12.57;;;2.53;;
50880;SDS011;36858;47.832;-3.800;2022-10-22T18:25:31;12.17;;;2.50;;
50880;SDS011;36858;47.832;-3.800;2022-10-22T18:27:58;6.73;;;2.00;;
50880;SDS011;36858;47.832;-3.800;2022-10-22T18:30:25;7.63;;;2.53;;
50880;SDS011;36858;47.832;-3.800;2022-10-22T18:32:52;11.13;;;2.43;;
50880;SDS011;36858;47.832;-3.800;2022-10-22T18:35:19;12.87;;;3.20;;
50880;SDS011;36858;47.832;-3.800;2022-10-22T18:37:46;10.17;;;2.70;;
50880;SDS011;36858;47.832;-3.800;2022-10-22T18:40:13;7.60;;;2.50;;
50880;SDS011;36858;47.832;-3.800;2022-10-22T18:42:40;10.47;;;3.20;;
50880;SDS011;36858;47.832;-3.800;2022-10-22T18:45:07;7.70;;;2.10;;
50880;SDS011;36858;47.832;-3.800;2022-10-22T18:47:38;7.20;;;2.07;;
50880;SDS011;36858;47.832;-3.800;2022-10-22T18:50:05;11.30;;;2.10;;
50880;SDS011;36858;47.832;-3.800;2022-10-22T18:52:33;8.60;;;2.00;;
50880;SDS011;36858;47.832;-3.800;2022-10-22T18:55:00;6.63;;;2.80;;
50880;SDS011;36858;47.832;-3.800;2022-10-22T18:57:27;12.70;;;2.57;;
50880;SDS011;36858;47.832;-3.800;2022-10-22T18:59:54;6.60;;;2.10;;
